createdAt,value
2018-08-03T00:00:45.604Z,100709.00
2018-08-03T00:05:48.772Z,100714.00
2018-08-03T00:10:52.083Z,100713.00
2018-08-03T00:15:55.116Z,100715.00
2018-08-03T00:20:58.216Z,100707.00
2018-08-03T00:26:01.412Z,100701.00
2018-08-03T00:31:04.720Z,100703.00
2018-08-03T00:36:08.831Z,100702.00
2018-08-03T00:41:12.058Z,100706.00
2018-08-03T00:46:15.267Z,100701.00
2018-08-03T00:51:18.563Z,100704.00
2018-08-03T00:56:21.555Z,100710.00
2018-08-03T01:01:24.689Z,100694.00
2018-08-03T01:06:27.681Z,100698.00
2018-08-03T01:11:30.878Z,100704.00
2018-08-03T01:16:39.404Z,100712.00
2018-08-03T01:21:44.119Z,100708.00
2018-08-03T01:26:47.095Z,100703.00
2018-08-03T01:31:50.279Z,100696.00
2018-08-03T01:36:53.282Z,100704.00
2018-08-03T01:41:56.520Z,100698.00
2018-08-03T01:46:59.704Z,100695.00
2018-08-03T01:52:02.928Z,100696.00
2018-08-03T01:57:06.644Z,100709.00
2018-08-03T02:02:09.743Z,100703.00
2018-08-03T02:07:12.711Z,100710.00
2018-08-03T02:12:15.725Z,100706.00
2018-08-03T02:17:18.696Z,100700.00
2018-08-03T02:22:21.724Z,100698.00
2018-08-03T02:27:24.683Z,100696.00
2018-08-03T02:32:27.874Z,100696.00
2018-08-03T02:37:30.859Z,100706.00
2018-08-03T02:42:33.858Z,100707.00
2018-08-03T02:47:36.966Z,100708.00
2018-08-03T02:52:39.943Z,100711.00
2018-08-03T02:57:42.909Z,100714.00
2018-08-03T03:02:45.858Z,100712.00
2018-08-03T03:07:48.884Z,100711.00
2018-08-03T03:12:52.035Z,100716.00
2018-08-03T03:17:55.337Z,100716.00
2018-08-03T03:22:58.295Z,100728.00
2018-08-03T03:28:02.327Z,100720.00
2018-08-03T03:33:05.315Z,100721.00
2018-08-03T03:38:08.547Z,100727.00
2018-08-03T03:43:11.865Z,100727.00
2018-08-03T03:48:14.835Z,100726.00
2018-08-03T03:53:17.973Z,100727.00
2018-08-03T03:58:20.969Z,100719.00
2018-08-03T04:03:23.956Z,100726.00
2018-08-03T04:08:26.918Z,100729.00
2018-08-03T04:13:31.172Z,100731.00
2018-08-03T04:18:34.182Z,100729.00
2018-08-03T04:23:37.305Z,100734.00
2018-08-03T04:28:40.454Z,100740.00
2018-08-03T04:33:43.953Z,100750.00
2018-08-03T04:38:47.177Z,100741.00
2018-08-03T04:43:50.184Z,100739.00
2018-08-03T04:48:53.668Z,100748.00
2018-08-03T04:53:56.684Z,100756.00
2018-08-03T04:58:59.771Z,100754.00
2018-08-03T05:04:02.827Z,100760.00
2018-08-03T05:09:06.568Z,100763.00
2018-08-03T05:14:09.908Z,100764.00
2018-08-03T05:19:12.880Z,100770.00
2018-08-03T05:24:15.942Z,100782.00
2018-08-03T05:29:18.960Z,100778.00
2018-08-03T05:34:22.004Z,100775.00
2018-08-03T05:39:25.012Z,100770.00
2018-08-03T05:44:27.980Z,100782.00
2018-08-03T05:49:31.016Z,100764.00
2018-08-03T05:54:34.159Z,100768.00
2018-08-03T05:59:39.187Z,100777.00
2018-08-03T06:04:42.224Z,100793.00
2018-08-03T06:09:46.026Z,100793.00
2018-08-03T06:14:49.123Z,100797.00
2018-08-03T06:19:52.267Z,100805.00
2018-08-03T06:24:55.776Z,100797.00
2018-08-03T06:29:58.787Z,100802.00
2018-08-03T06:35:01.992Z,100806.00
2018-08-03T06:40:05.304Z,100810.00
2018-08-03T06:45:08.349Z,100801.00
2018-08-03T06:50:11.358Z,100809.00
2018-08-03T06:55:14.628Z,100805.00
2018-08-03T07:00:17.840Z,100807.00
2018-08-03T07:05:20.830Z,100812.00
2018-08-03T07:10:23.916Z,100815.00
2018-08-03T07:15:27.159Z,100818.00
2018-08-03T07:20:30.279Z,100807.00
2018-08-03T07:25:33.368Z,100794.00
2018-08-03T07:30:36.403Z,100803.00
2018-08-03T07:35:39.427Z,100808.00
2018-08-03T07:40:43.610Z,100806.00
2018-08-03T07:45:46.609Z,100807.00
2018-08-03T07:50:49.572Z,100812.00
2018-08-03T07:55:52.642Z,100814.00
2018-08-03T08:00:55.927Z,100817.00
2018-08-03T08:05:59.130Z,100814.00
2018-08-03T08:11:02.359Z,100800.00
2018-08-03T08:16:05.652Z,100798.00
2018-08-03T08:21:08.672Z,100778.00
2018-08-03T08:26:12.016Z,100783.00
2018-08-03T08:31:15.287Z,100795.00
2018-08-03T08:36:18.491Z,100784.00
2018-08-03T08:41:21.555Z,100786.00
2018-08-03T08:46:24.810Z,100765.00
2018-08-03T08:51:28.817Z,100784.00
2018-08-03T08:56:32.039Z,100784.00
2018-08-03T09:01:35.378Z,100794.00
2018-08-03T09:06:38.458Z,100786.00
2018-08-03T09:11:41.578Z,100796.00
2018-08-03T09:16:45.445Z,100785.00
2018-08-03T09:21:48.471Z,100783.00
2018-08-03T09:26:52.675Z,100772.00
2018-08-03T09:31:55.928Z,100758.00
2018-08-03T09:37:00.084Z,100765.00
2018-08-03T09:42:03.263Z,100761.00
2018-08-03T09:47:06.325Z,100762.00
2018-08-03T09:52:09.361Z,100753.00
2018-08-03T09:57:12.660Z,100740.00
2018-08-03T10:02:15.655Z,100738.00
2018-08-03T10:07:18.631Z,100733.00
2018-08-03T10:12:21.819Z,100729.00
2018-08-03T10:17:25.028Z,100743.00
2018-08-03T10:22:28.300Z,100728.00
2018-08-03T10:27:31.224Z,100728.00
2018-08-03T10:32:34.856Z,100717.00
2018-08-03T10:37:38.052Z,100727.00
2018-08-03T10:42:41.172Z,100725.00
2018-08-03T10:47:44.919Z,100719.00
2018-08-03T10:52:48.231Z,100705.00
2018-08-03T10:57:51.511Z,100711.00
2018-08-03T11:02:55.840Z,100697.00
2018-08-03T11:07:58.939Z,100700.00
2018-08-03T11:13:02.268Z,100699.00
2018-08-03T11:18:05.496Z,100686.00
2018-08-03T11:23:08.779Z,100691.00
2018-08-03T11:28:11.850Z,100694.00
2018-08-03T11:33:14.895Z,100678.00
2018-08-03T11:38:17.972Z,100690.00
2018-08-03T11:43:21.158Z,100677.00
2018-08-03T11:48:25.079Z,100669.00
2018-08-03T11:53:27.966Z,100672.00
2018-08-03T11:58:31.093Z,100671.00
2018-08-03T12:03:34.349Z,100663.00
2018-08-03T12:08:37.530Z,100655.00
2018-08-03T12:13:40.633Z,100648.00
2018-08-03T12:18:43.636Z,100646.00
2018-08-03T12:23:46.786Z,100632.00
2018-08-03T12:28:49.833Z,100634.00
2018-08-03T12:33:53.166Z,100639.00
2018-08-03T12:38:56.386Z,100622.00
2018-08-03T12:43:59.499Z,100615.00
2018-08-03T12:49:02.923Z,100610.00
2018-08-03T12:54:06.136Z,100612.00
2018-08-03T12:59:09.080Z,100607.00
2018-08-03T13:04:12.087Z,100607.00
2018-08-03T13:09:15.037Z,100608.00
2018-08-03T13:14:18.252Z,100608.00
2018-08-03T13:19:21.232Z,100599.00
2018-08-03T13:24:24.272Z,100590.00
2018-08-03T13:29:27.582Z,100592.00
2018-08-03T13:34:30.606Z,100590.00
2018-08-03T13:39:33.632Z,100573.00
2018-08-03T13:44:36.835Z,100582.00
2018-08-03T13:49:39.859Z,100578.00
2018-08-03T13:54:43.029Z,100568.00
2018-08-03T13:59:46.058Z,100560.00
2018-08-03T14:04:49.161Z,100550.00
2018-08-03T14:09:52.667Z,100548.00
2018-08-03T14:14:55.945Z,100540.00
2018-08-03T14:19:59.228Z,100533.00
2018-08-03T14:25:02.271Z,100524.00
2018-08-03T14:30:07.101Z,100536.00
2018-08-03T14:35:10.326Z,100521.00
2018-08-03T14:40:13.628Z,100511.00
2018-08-03T14:45:16.754Z,100517.00
2018-08-03T14:50:19.873Z,100514.00
2018-08-03T14:55:22.910Z,100512.00
2018-08-03T15:00:25.993Z,100515.00
2018-08-03T15:05:29.246Z,100510.00
2018-08-03T15:10:32.638Z,100500.00
2018-08-03T15:15:35.892Z,100496.00
2018-08-03T15:20:39.091Z,100492.00
2018-08-03T15:25:42.230Z,100491.00
2018-08-03T15:30:45.222Z,100489.00
2018-08-03T15:35:48.520Z,100490.00
2018-08-03T15:40:51.753Z,100497.00
2018-08-03T15:45:55.244Z,100487.00
2018-08-03T15:50:58.307Z,100488.00
2018-08-03T15:56:01.661Z,100484.00
2018-08-03T16:01:04.808Z,100473.00
2018-08-03T16:06:08.082Z,100466.00
2018-08-03T16:11:11.262Z,100458.00
2018-08-03T16:16:14.593Z,100460.00
2018-08-03T16:21:17.806Z,100457.00
2018-08-03T16:26:21.319Z,100452.00
2018-08-03T16:31:24.477Z,100437.00
2018-08-03T16:36:27.664Z,100443.00
2018-08-03T16:41:30.957Z,100433.00
2018-08-03T16:46:34.306Z,100437.00
2018-08-03T16:51:37.565Z,100437.00
2018-08-03T16:56:40.775Z,100441.00
2018-08-03T17:01:43.909Z,100437.00
2018-08-03T17:06:47.289Z,100437.00
2018-08-03T17:11:50.419Z,100435.00
2018-08-03T17:16:53.617Z,100438.00
2018-08-03T17:21:56.913Z,100431.00
2018-08-03T17:27:00.124Z,100424.00
2018-08-03T17:32:03.215Z,100428.00
2018-08-03T17:37:06.447Z,100421.00
2018-08-03T17:42:09.659Z,100425.00
2018-08-03T17:47:12.930Z,100425.00
2018-08-03T17:52:15.967Z,100417.00
2018-08-03T17:57:19.184Z,100423.00
2018-08-03T18:02:22.244Z,100419.00
2018-08-03T18:07:25.410Z,100428.00
2018-08-03T18:12:28.671Z,100423.00
2018-08-03T18:17:31.717Z,100424.00
2018-08-03T18:22:35.102Z,100419.00
2018-08-03T18:27:38.214Z,100424.00
2018-08-03T18:32:41.542Z,100418.00
2018-08-03T18:37:44.621Z,100419.00
2018-08-03T18:42:47.772Z,100416.00
2018-08-03T18:47:51.137Z,100413.00
2018-08-03T18:52:54.361Z,100410.00
2018-08-03T18:57:57.576Z,100405.00
2018-08-03T19:03:00.780Z,100408.00
2018-08-03T19:08:03.975Z,100405.00
2018-08-03T19:13:07.142Z,100406.00
2018-08-03T19:18:10.765Z,100416.00
2018-08-03T19:23:14.004Z,100411.00
2018-08-03T19:28:17.320Z,100419.00
2018-08-03T19:33:20.550Z,100416.00
2018-08-03T19:38:23.707Z,100420.00
2018-08-03T19:43:26.743Z,100428.00
2018-08-03T19:48:29.980Z,100425.00
2018-08-03T19:53:33.285Z,100430.00
2018-08-03T19:58:36.379Z,100429.00
2018-08-03T20:03:39.504Z,100432.00
2018-08-03T20:08:42.603Z,100428.00
2018-08-03T20:13:45.717Z,100426.00
2018-08-03T20:18:48.885Z,100424.00
2018-08-03T20:23:52.252Z,100416.00
2018-08-03T20:28:55.277Z,100424.00
2018-08-03T20:33:58.532Z,100431.00
2018-08-03T20:39:01.812Z,100423.00
2018-08-03T20:44:05.068Z,100414.00
2018-08-03T20:49:08.283Z,100415.00
2018-08-03T20:54:11.585Z,100419.00
2018-08-03T20:59:14.796Z,100418.00
2018-08-03T21:04:17.996Z,100415.00
2018-08-03T21:09:21.223Z,100415.00
2018-08-03T21:14:24.240Z,100407.00
2018-08-03T21:19:27.540Z,100413.00
2018-08-03T21:24:30.573Z,100407.00
2018-08-03T21:29:33.948Z,100401.00
2018-08-03T21:34:37.043Z,100401.00
2018-08-03T21:39:40.272Z,100390.00
2018-08-03T21:44:43.472Z,100393.00
2018-08-03T21:49:46.677Z,100381.00
2018-08-03T21:54:49.878Z,100385.00
2018-08-03T21:59:53.156Z,100383.00
2018-08-03T22:04:56.207Z,100388.00
2018-08-03T22:09:59.264Z,100381.00
2018-08-03T22:15:02.372Z,100381.00
2018-08-03T22:20:05.552Z,100384.00
2018-08-03T22:25:08.926Z,100386.00
2018-08-03T22:30:12.751Z,100379.00
2018-08-03T22:35:15.962Z,100382.00
2018-08-03T22:40:19.176Z,100387.00
2018-08-03T22:45:22.220Z,100380.00
2018-08-03T22:50:25.203Z,100379.00
2018-08-03T22:55:28.248Z,100383.00
2018-08-03T23:00:31.703Z,100369.00
2018-08-03T23:05:34.736Z,100375.00
2018-08-03T23:10:37.896Z,100371.00
2018-08-03T23:15:41.064Z,100376.00
2018-08-03T23:20:44.100Z,100372.00
2018-08-03T23:25:47.099Z,100368.00
2018-08-03T23:30:50.310Z,100366.00
2018-08-03T23:35:53.637Z,100361.00
2018-08-03T23:40:57.235Z,100357.00
2018-08-03T23:46:00.243Z,100354.00
2018-08-03T23:51:03.476Z,100354.00
2018-08-03T23:56:06.692Z,100348.00
